sensor_id;sensor_type;location;lat;lon;timestamp;temperature;humidity
31975;DHT22;18500;43.618;1.474;2022-09-09T06:55:30;18.40;1.00
31975;DHT22;18500;43.618;1.474;2022-09-09T06:57:56;18.40;1.00
31975;DHT22;18500;43.618;1.474;2022-09-09T07:00:22;18.40;1.00
31975;DHT22;18500;43.618;1.474;2022-09-09T07:02:47;18.40;1.00
31975;DHT22;18500;43.618;1.474;2022-09-09T07:05:16;18.40;1.00
31975;DHT22;18500;43.618;1.474;2022-09-09T07:07:41;18.40;1.00
31975;DHT22;18500;43.618;1.474;2022-09-09T07:10:07;18.40;1.00
31975;DHT22;18500;43.618;1.474;2022-09-09T07:12:33;18.40;1.00
31975;DHT22;18500;43.618;1.474;2022-09-09T07:14:59;18.40;1.00
31975;DHT22;18500;43.618;1.474;2022-09-09T07:17:25;18.40;1.00
31975;DHT22;18500;43.618;1.474;2022-09-09T07:19:53;18.60;1.00
31975;DHT22;18500;43.618;1.474;2022-09-09T07:22:19;18.60;1.00
31975;DHT22;18500;43.618;1.474;2022-09-09T07:24:45;18.60;1.00
31975;DHT22;18500;43.618;1.474;2022-09-09T14:43:24;23.60;1.00
31975;DHT22;18500;43.618;1.474;2022-09-09T14:45:50;23.90;1.00
31975;DHT22;18500;43.618;1.474;2022-09-09T14:48:17;24.30;1.00
31975;DHT22;18500;43.618;1.474;2022-09-09T14:50:43;24.30;1.00
31975;DHT22;18500;43.618;1.474;2022-09-09T14:53:09;23.90;1.00
31975;DHT22;18500;43.618;1.474;2022-09-09T14:55:36;23.40;1.00
31975;DHT22;18500;43.618;1.474;2022-09-09T14:58:02;23.40;1.00
31975;DHT22;18500;43.618;1.474;2022-09-09T15:00:28;23.50;1.00
31975;DHT22;18500;43.618;1.474;2022-09-09T15:02:54;24.00;1.00
31975;DHT22;18500;43.618;1.474;2022-09-09T15:05:21;23.80;1.00
31975;DHT22;18500;43.618;1.474;2022-09-09T15:07:46;23.70;1.00
31975;DHT22;18500;43.618;1.474;2022-09-09T15:10:14;23.80;1.00
31975;DHT22;18500;43.618;1.474;2022-09-09T15:12:40;23.30;1.00
31975;DHT22;18500;43.618;1.474;2022-09-09T15:15:07;22.90;1.00
31975;DHT22;18500;43.618;1.474;2022-09-09T15:17:33;23.10;1.00
31975;DHT22;18500;43.618;1.474;2022-09-09T15:19:59;23.50;1.00
31975;DHT22;18500;43.618;1.474;2022-09-09T15:22:25;23.80;1.00
31975;DHT22;18500;43.618;1.474;2022-09-09T15:24:50;23.60;1.00
31975;DHT22;18500;43.618;1.474;2022-09-09T15:27:16;23.40;1.00
31975;DHT22;18500;43.618;1.474;2022-09-09T15:29:43;23.30;1.00
31975;DHT22;18500;43.618;1.474;2022-09-09T15:32:09;23.10;1.00
31975;DHT22;18500;43.618;1.474;2022-09-09T15:34:35;23.00;1.00
31975;DHT22;18500;43.618;1.474;2022-09-09T15:37:00;23.10;1.00
31975;DHT22;18500;43.618;1.474;2022-09-09T15:39:26;23.20;1.00
31975;DHT22;18500;43.618;1.474;2022-09-09T15:41:52;22.80;1.00
31975;DHT22;18500;43.618;1.474;2022-09-09T15:44:18;22.90;1.00
31975;DHT22;18500;43.618;1.474;2022-09-09T15:46:52;23.10;1.00
31975;DHT22;18500;43.618;1.474;2022-09-09T15:49:21;22.80;1.00
31975;DHT22;18500;43.618;1.474;2022-09-09T15:51:55;22.90;1.00
31975;DHT22;18500;43.618;1.474;2022-09-09T15:54:23;23.10;1.00
31975;DHT22;18500;43.618;1.474;2022-09-09T15:56:57;23.00;1.00
31975;DHT22;18500;43.618;1.474;2022-09-09T15:59:24;23.00;1.00
31975;DHT22;18500;43.618;1.474;2022-09-09T16:01:50;23.00;1.00
31975;DHT22;18500;43.618;1.474;2022-09-09T16:04:19;22.80;1.00
31975;DHT22;18500;43.618;1.474;2022-09-09T16:06:50;22.60;1.00
31975;DHT22;18500;43.618;1.474;2022-09-09T16:09:16;22.80;1.00
31975;DHT22;18500;43.618;1.474;2022-09-09T16:11:41;23.10;1.00
31975;DHT22;18500;43.618;1.474;2022-09-09T16:14:07;23.20;1.00
31975;DHT22;18500;43.618;1.474;2022-09-09T16:16:33;23.30;1.00
31975;DHT22;18500;43.618;1.474;2022-09-09T16:19:04;23.40;1.00
31975;DHT22;18500;43.618;1.474;2022-09-09T16:21:36;23.60;1.00
31975;DHT22;18500;43.618;1.474;2022-09-09T16:24:03;23.40;1.00
31975;DHT22;18500;43.618;1.474;2022-09-09T16:26:31;23.20;1.00
31975;DHT22;18500;43.618;1.474;2022-09-09T16:28:58;23.10;1.00
31975;DHT22;18500;43.618;1.474;2022-09-09T16:31:25;23.10;1.00
31975;DHT22;18500;43.618;1.474;2022-09-09T16:33:51;23.00;1.00
31975;DHT22;18500;43.618;1.474;2022-09-09T16:36:28;22.90;1.00
31975;DHT22;18500;43.618;1.474;2022-09-09T16:38:57;22.90;1.00
31975;DHT22;18500;43.618;1.474;2022-09-09T16:41:24;22.70;1.00
31975;DHT22;18500;43.618;1.474;2022-09-09T16:43:58;22.70;1.00
31975;DHT22;18500;43.618;1.474;2022-09-09T16:46:26;22.70;1.00
31975;DHT22;18500;43.618;1.474;2022-09-09T16:48:53;22.60;1.00
31975;DHT22;18500;43.618;1.474;2022-09-09T16:51:25;22.60;1.00
31975;DHT22;18500;43.618;1.474;2022-09-09T16:53:52;22.70;1.00
31975;DHT22;18500;43.618;1.474;2022-09-09T16:56:22;22.50;1.00
31975;DHT22;18500;43.618;1.474;2022-09-09T16:58:53;22.30;1.00
31975;DHT22;18500;43.618;1.474;2022-09-09T17:01:20;22.50;1.00
31975;DHT22;18500;43.618;1.474;2022-09-09T17:03:46;22.00;1.00
31975;DHT22;18500;43.618;1.474;2022-09-09T17:06:13;22.10;1.00
31975;DHT22;18500;43.618;1.474;2022-09-09T17:08:39;22.50;1.00
31975;DHT22;18500;43.618;1.474;2022-09-09T17:11:17;21.90;1.00
31975;DHT22;18500;43.618;1.474;2022-09-09T17:13:45;22.10;1.00
31975;DHT22;18500;43.618;1.474;2022-09-09T17:16:12;22.20;1.00
31975;DHT22;18500;43.618;1.474;2022-09-09T17:18:39;22.30;1.00
31975;DHT22;18500;43.618;1.474;2022-09-09T17:21:11;22.60;1.00
31975;DHT22;18500;43.618;1.474;2022-09-09T17:23:38;22.70;1.00
31975;DHT22;18500;43.618;1.474;2022-09-09T17:26:06;22.70;1.00
31975;DHT22;18500;43.618;1.474;2022-09-09T17:28:34;22.70;1.00
31975;DHT22;18500;43.618;1.474;2022-09-09T17:31:00;23.00;1.00
31975;DHT22;18500;43.618;1.474;2022-09-09T17:33:30;23.00;1.00
31975;DHT22;18500;43.618;1.474;2022-09-09T17:36:01;22.80;1.00
31975;DHT22;18500;43.618;1.474;2022-09-09T17:38:27;22.70;1.00
31975;DHT22;18500;43.618;1.474;2022-09-09T17:41:03;22.60;1.00
31975;DHT22;18500;43.618;1.474;2022-09-09T17:43:30;22.50;1.00
31975;DHT22;18500;43.618;1.474;2022-09-09T17:46:05;22.50;1.00
31975;DHT22;18500;43.618;1.474;2022-09-09T17:48:30;22.40;1.00
31975;DHT22;18500;43.618;1.474;2022-09-09T17:50:58;22.30;1.00
31975;DHT22;18500;43.618;1.474;2022-09-09T17:53:24;22.40;1.00
31975;DHT22;18500;43.618;1.474;2022-09-09T17:55:51;22.20;1.00
31975;DHT22;18500;43.618;1.474;2022-09-09T17:58:16;22.20;1.00
31975;DHT22;18500;43.618;1.474;2022-09-09T18:00:42;22.20;1.00
31975;DHT22;18500;43.618;1.474;2022-09-09T18:03:07;22.20;1.00
31975;DHT22;18500;43.618;1.474;2022-09-09T18:05:34;22.10;1.00
31975;DHT22;18500;43.618;1.474;2022-09-09T18:08:00;22.20;1.00
31975;DHT22;18500;43.618;1.474;2022-09-09T18:10:25;22.00;1.00
31975;DHT22;18500;43.618;1.474;2022-09-09T18:12:51;21.90;1.00
31975;DHT22;18500;43.618;1.474;2022-09-09T18:15:17;21.70;1.00
31975;DHT22;18500;43.618;1.474;2022-09-09T18:17:42;21.70;1.00
31975;DHT22;18500;43.618;1.474;2022-09-09T18:20:08;21.60;1.00
31975;DHT22;18500;43.618;1.474;2022-09-09T18:22:35;21.50;1.00
31975;DHT22;18500;43.618;1.474;2022-09-09T18:25:01;21.60;1.00
31975;DHT22;18500;43.618;1.474;2022-09-09T18:27:27;21.50;1.00
31975;DHT22;18500;43.618;1.474;2022-09-09T18:29:53;21.50;1.00
31975;DHT22;18500;43.618;1.474;2022-09-09T18:32:19;21.20;1.00
31975;DHT22;18500;43.618;1.474;2022-09-09T18:34:44;21.00;1.00
31975;DHT22;18500;43.618;1.474;2022-09-09T18:37:10;20.90;1.00
31975;DHT22;18500;43.618;1.474;2022-09-09T18:39:36;20.90;1.00
31975;DHT22;18500;43.618;1.474;2022-09-09T18:42:02;21.30;1.00
31975;DHT22;18500;43.618;1.474;2022-09-09T18:44:31;21.30;1.00
31975;DHT22;18500;43.618;1.474;2022-09-09T18:46:58;21.30;1.00
31975;DHT22;18500;43.618;1.474;2022-09-09T18:49:24;21.30;1.00
31975;DHT22;18500;43.618;1.474;2022-09-09T18:51:51;21.10;1.00
31975;DHT22;18500;43.618;1.474;2022-09-09T18:54:24;20.90;1.00
31975;DHT22;18500;43.618;1.474;2022-09-09T18:56:50;20.90;1.00
31975;DHT22;18500;43.618;1.474;2022-09-09T18:59:19;20.90;1.00
31975;DHT22;18500;43.618;1.474;2022-09-09T19:01:47;20.80;1.00
31975;DHT22;18500;43.618;1.474;2022-09-09T19:04:13;20.90;1.00
31975;DHT22;18500;43.618;1.474;2022-09-09T19:06:42;20.80;1.00
31975;DHT22;18500;43.618;1.474;2022-09-09T19:09:10;20.70;1.00
31975;DHT22;18500;43.618;1.474;2022-09-09T19:11:37;20.80;1.00
31975;DHT22;18500;43.618;1.474;2022-09-09T19:14:04;20.60;1.00
31975;DHT22;18500;43.618;1.474;2022-09-09T19:16:32;20.80;1.00
31975;DHT22;18500;43.618;1.474;2022-09-09T19:19:00;20.70;1.00
31975;DHT22;18500;43.618;1.474;2022-09-09T19:21:28;20.50;1.00
31975;DHT22;18500;43.618;1.474;2022-09-09T19:23:57;20.40;1.00
31975;DHT22;18500;43.618;1.474;2022-09-09T19:26:25;20.20;1.00
31975;DHT22;18500;43.618;1.474;2022-09-09T19:28:51;20.20;1.00
31975;DHT22;18500;43.618;1.474;2022-09-09T19:31:18;20.10;1.00
31975;DHT22;18500;43.618;1.474;2022-09-09T19:33:45;20.20;1.00
31975;DHT22;18500;43.618;1.474;2022-09-09T19:36:13;20.20;1.00
31975;DHT22;18500;43.618;1.474;2022-09-09T19:38:40;20.10;1.00
31975;DHT22;18500;43.618;1.474;2022-09-09T19:41:12;20.10;1.00
31975;DHT22;18500;43.618;1.474;2022-09-09T19:43:39;20.20;1.00
31975;DHT22;18500;43.618;1.474;2022-09-09T19:46:08;20.00;1.00
31975;DHT22;18500;43.618;1.474;2022-09-09T19:48:37;20.10;1.00
31975;DHT22;18500;43.618;1.474;2022-09-09T19:51:05;20.00;1.00
31975;DHT22;18500;43.618;1.474;2022-09-09T19:53:34;19.80;1.00
31975;DHT22;18500;43.618;1.474;2022-09-09T19:56:01;19.90;1.00
31975;DHT22;18500;43.618;1.474;2022-09-09T19:58:28;19.80;1.00
31975;DHT22;18500;43.618;1.474;2022-09-09T20:00:55;19.80;1.00
31975;DHT22;18500;43.618;1.474;2022-09-09T20:03:21;19.70;1.00
31975;DHT22;18500;43.618;1.474;2022-09-09T20:05:47;19.80;1.00
31975;DHT22;18500;43.618;1.474;2022-09-09T20:08:14;19.60;1.00
31975;DHT22;18500;43.618;1.474;2022-09-09T20:10:39;19.60;1.00
31975;DHT22;18500;43.618;1.474;2022-09-09T20:13:14;19.50;1.00
31975;DHT22;18500;43.618;1.474;2022-09-09T20:15:40;19.50;1.00
31975;DHT22;18500;43.618;1.474;2022-09-09T20:18:06;19.40;1.00
31975;DHT22;18500;43.618;1.474;2022-09-09T20:20:31;19.30;1.00
31975;DHT22;18500;43.618;1.474;2022-09-09T20:22:57;19.20;1.00
31975;DHT22;18500;43.618;1.474;2022-09-09T20:25:23;19.10;1.00
31975;DHT22;18500;43.618;1.474;2022-09-09T20:27:49;19.10;1.00
31975;DHT22;18500;43.618;1.474;2022-09-09T20:30:15;19.00;1.00
31975;DHT22;18500;43.618;1.474;2022-09-09T20:32:41;19.10;1.00
31975;DHT22;18500;43.618;1.474;2022-09-09T20:35:07;19.10;1.00
31975;DHT22;18500;43.618;1.474;2022-09-09T20:37:32;19.10;1.00
31975;DHT22;18500;43.618;1.474;2022-09-09T20:39:58;19.00;1.00
31975;DHT22;18500;43.618;1.474;2022-09-09T20:42:26;19.10;1.00
31975;DHT22;18500;43.618;1.474;2022-09-09T20:44:52;19.00;1.00
31975;DHT22;18500;43.618;1.474;2022-09-09T20:47:17;18.90;1.00
31975;DHT22;18500;43.618;1.474;2022-09-09T20:49:43;18.90;1.00
31975;DHT22;18500;43.618;1.474;2022-09-09T20:52:09;18.90;1.00
31975;DHT22;18500;43.618;1.474;2022-09-09T20:54:36;18.80;1.00
31975;DHT22;18500;43.618;1.474;2022-09-09T20:57:04;18.90;1.00
31975;DHT22;18500;43.618;1.474;2022-09-09T20:59:30;18.80;1.00
31975;DHT22;18500;43.618;1.474;2022-09-09T21:01:56;18.70;1.00
31975;DHT22;18500;43.618;1.474;2022-09-09T21:04:22;18.60;1.00
